sensor_id;sensor_type;location;lat;lon;timestamp;temperature;humidity
52799;DHT22;38667;42.872;74.622;2023-12-28T00:01:46;4.40;86.20
52799;DHT22;38667;42.872;74.622;2023-12-28T00:04:12;4.30;87.40
52799;DHT22;38667;42.872;74.622;2023-12-28T00:06:38;4.30;87.60
52799;DHT22;38667;42.872;74.622;2023-12-28T00:09:05;4.30;88.60
52799;DHT22;38667;42.872;74.622;2023-12-28T00:11:31;4.20;88.70
52799;DHT22;38667;42.872;74.622;2023-12-28T00:13:57;4.10;89.60
52799;DHT22;38667;42.872;74.622;2023-12-28T00:16:24;4.10;89.70
52799;DHT22;38667;42.872;74.622;2023-12-28T00:18:52;4.10;89.50
52799;DHT22;38667;42.872;74.622;2023-12-28T00:21:18;4.30;88.00
52799;DHT22;38667;42.872;74.622;2023-12-28T00:23:44;4.30;86.50
52799;DHT22;38667;42.872;74.622;2023-12-28T00:26:11;4.30;86.60
52799;DHT22;38667;42.872;74.622;2023-12-28T00:28:37;4.30;86.30
52799;DHT22;38667;42.872;74.622;2023-12-28T00:31:04;4.10;87.70
52799;DHT22;38667;42.872;74.622;2023-12-28T00:33:30;4.00;88.30
52799;DHT22;38667;42.872;74.622;2023-12-28T00:35:58;4.00;88.50
52799;DHT22;38667;42.872;74.622;2023-12-28T00:38:24;4.10;88.20
52799;DHT22;38667;42.872;74.622;2023-12-28T00:40:50;4.00;88.20
52799;DHT22;38667;42.872;74.622;2023-12-28T00:43:17;4.00;87.80
52799;DHT22;38667;42.872;74.622;2023-12-28T00:45:43;4.00;88.20
52799;DHT22;38667;42.872;74.622;2023-12-28T00:48:09;3.90;89.00
52799;DHT22;38667;42.872;74.622;2023-12-28T00:50:36;3.90;89.30
52799;DHT22;38667;42.872;74.622;2023-12-28T00:53:04;3.80;89.50
52799;DHT22;38667;42.872;74.622;2023-12-28T00:55:30;3.80;89.90
52799;DHT22;38667;42.872;74.622;2023-12-28T00:57:56;3.90;89.50
52799;DHT22;38667;42.872;74.622;2023-12-28T01:00:23;3.90;89.40
52799;DHT22;38667;42.872;74.622;2023-12-28T01:02:49;3.90;88.00
52799;DHT22;38667;42.872;74.622;2023-12-28T01:05:15;4.00;87.20
52799;DHT22;38667;42.872;74.622;2023-12-28T01:07:42;4.10;87.20
52799;DHT22;38667;42.872;74.622;2023-12-28T01:10:10;4.00;87.60
52799;DHT22;38667;42.872;74.622;2023-12-28T01:12:36;4.00;88.60
52799;DHT22;38667;42.872;74.622;2023-12-28T01:15:03;4.00;88.90
52799;DHT22;38667;42.872;74.622;2023-12-28T01:17:29;4.00;88.90
52799;DHT22;38667;42.872;74.622;2023-12-28T01:19:55;4.00;89.50
52799;DHT22;38667;42.872;74.622;2023-12-28T01:22:22;4.00;89.80
52799;DHT22;38667;42.872;74.622;2023-12-28T01:24:48;3.90;90.10
52799;DHT22;38667;42.872;74.622;2023-12-28T01:27:16;3.90;90.70
52799;DHT22;38667;42.872;74.622;2023-12-28T01:29:42;3.80;90.70
52799;DHT22;38667;42.872;74.622;2023-12-28T01:32:09;3.80;90.70
52799;DHT22;38667;42.872;74.622;2023-12-28T01:34:35;3.80;90.90
52799;DHT22;38667;42.872;74.622;2023-12-28T01:37:02;3.80;90.80
52799;DHT22;38667;42.872;74.622;2023-12-28T01:39:28;3.90;89.60
52799;DHT22;38667;42.872;74.622;2023-12-28T01:41:54;3.90;89.10
52799;DHT22;38667;42.872;74.622;2023-12-28T01:44:22;3.90;88.90
52799;DHT22;38667;42.872;74.622;2023-12-28T01:46:49;3.90;88.70
52799;DHT22;38667;42.872;74.622;2023-12-28T01:49:15;3.80;88.40
52799;DHT22;38667;42.872;74.622;2023-12-28T01:51:42;3.70;89.80
52799;DHT22;38667;42.872;74.622;2023-12-28T01:54:10;3.60;90.70
52799;DHT22;38667;42.872;74.622;2023-12-28T01:56:37;3.50;91.20
52799;DHT22;38667;42.872;74.622;2023-12-28T01:59:03;3.60;90.80
52799;DHT22;38667;42.872;74.622;2023-12-28T02:01:31;3.60;89.80
52799;DHT22;38667;42.872;74.622;2023-12-28T02:03:58;3.60;89.50
52799;DHT22;38667;42.872;74.622;2023-12-28T02:06:24;3.60;88.90
52799;DHT22;38667;42.872;74.622;2023-12-28T02:08:51;3.70;88.50
52799;DHT22;38667;42.872;74.622;2023-12-28T02:11:18;3.70;86.60
52799;DHT22;38667;42.872;74.622;2023-12-28T02:13:45;3.70;86.40
52799;DHT22;38667;42.872;74.622;2023-12-28T02:16:16;3.80;85.60
52799;DHT22;38667;42.872;74.622;2023-12-28T02:18:49;3.80;84.90
52799;DHT22;38667;42.872;74.622;2023-12-28T02:21:16;3.70;85.30
52799;DHT22;38667;42.872;74.622;2023-12-28T02:23:47;3.70;85.40
52799;DHT22;38667;42.872;74.622;2023-12-28T02:26:15;3.60;85.90
52799;DHT22;38667;42.872;74.622;2023-12-28T02:28:41;3.60;85.20
52799;DHT22;38667;42.872;74.622;2023-12-28T02:31:09;3.60;84.80
52799;DHT22;38667;42.872;74.622;2023-12-28T02:33:47;3.70;83.40
52799;DHT22;38667;42.872;74.622;2023-12-28T02:36:17;3.80;82.70
52799;DHT22;38667;42.872;74.622;2023-12-28T02:38:45;3.70;81.70
52799;DHT22;38667;42.872;74.622;2023-12-28T02:41:12;3.70;82.20
52799;DHT22;38667;42.872;74.622;2023-12-28T02:43:40;3.70;82.00
52799;DHT22;38667;42.872;74.622;2023-12-28T02:46:07;3.80;81.30
52799;DHT22;38667;42.872;74.622;2023-12-28T02:48:33;3.80;80.70
52799;DHT22;38667;42.872;74.622;2023-12-28T02:50:59;3.80;80.40
52799;DHT22;38667;42.872;74.622;2023-12-28T02:53:26;3.90;79.40
52799;DHT22;38667;42.872;74.622;2023-12-28T02:55:52;3.90;79.00
52799;DHT22;38667;42.872;74.622;2023-12-28T02:58:19;4.00;78.90
52799;DHT22;38667;42.872;74.622;2023-12-28T03:00:46;3.90;79.10
52799;DHT22;38667;42.872;74.622;2023-12-28T03:03:13;3.90;78.80
52799;DHT22;38667;42.872;74.622;2023-12-28T03:05:39;3.90;78.70
52799;DHT22;38667;42.872;74.622;2023-12-28T03:08:06;4.00;78.90
52799;DHT22;38667;42.872;74.622;2023-12-28T03:10:32;3.90;79.60
52799;DHT22;38667;42.872;74.622;2023-12-28T03:12:58;3.90;80.60
52799;DHT22;38667;42.872;74.622;2023-12-28T03:15:25;4.10;78.60
52799;DHT22;38667;42.872;74.622;2023-12-28T03:17:53;4.30;77.00
52799;DHT22;38667;42.872;74.622;2023-12-28T03:20:19;4.30;76.50
52799;DHT22;38667;42.872;74.622;2023-12-28T03:22:46;4.30;78.20
52799;DHT22;38667;42.872;74.622;2023-12-28T03:25:12;4.30;78.10
52799;DHT22;38667;42.872;74.622;2023-12-28T03:27:40;4.30;77.20
52799;DHT22;38667;42.872;74.622;2023-12-28T03:30:07;4.40;75.50
52799;DHT22;38667;42.872;74.622;2023-12-28T03:32:34;4.50;74.50
52799;DHT22;38667;42.872;74.622;2023-12-28T03:35:02;4.60;73.80
52799;DHT22;38667;42.872;74.622;2023-12-28T03:37:28;4.70;73.10
52799;DHT22;38667;42.872;74.622;2023-12-28T03:39:55;4.70;74.50
52799;DHT22;38667;42.872;74.622;2023-12-28T03:42:21;4.80;75.40
52799;DHT22;38667;42.872;74.622;2023-12-28T03:44:47;4.90;75.70
52799;DHT22;38667;42.872;74.622;2023-12-28T03:47:14;4.90;75.80
52799;DHT22;38667;42.872;74.622;2023-12-28T03:49:40;4.80;75.00
52799;DHT22;38667;42.872;74.622;2023-12-28T03:52:08;4.90;74.20
52799;DHT22;38667;42.872;74.622;2023-12-28T03:54:34;4.90;74.40
52799;DHT22;38667;42.872;74.622;2023-12-28T03:57:01;5.00;74.20
52799;DHT22;38667;42.872;74.622;2023-12-28T03:59:27;5.00;73.00
52799;DHT22;38667;42.872;74.622;2023-12-28T04:01:53;5.10;70.20
52799;DHT22;38667;42.872;74.622;2023-12-28T04:04:20;5.10;70.40
52799;DHT22;38667;42.872;74.622;2023-12-28T04:06:46;5.20;69.10
52799;DHT22;38667;42.872;74.622;2023-12-28T04:09:14;5.20;69.10
52799;DHT22;38667;42.872;74.622;2023-12-28T04:11:41;5.30;68.40
52799;DHT22;38667;42.872;74.622;2023-12-28T04:14:07;5.30;69.50
52799;DHT22;38667;42.872;74.622;2023-12-28T04:16:33;5.30;67.90
52799;DHT22;38667;42.872;74.622;2023-12-28T04:19:00;5.40;67.80
52799;DHT22;38667;42.872;74.622;2023-12-28T04:21:26;5.50;68.40
52799;DHT22;38667;42.872;74.622;2023-12-28T04:23:52;5.50;67.70
52799;DHT22;38667;42.872;74.622;2023-12-28T04:26:20;5.60;67.00
52799;DHT22;38667;42.872;74.622;2023-12-28T04:28:47;5.70;66.50
52799;DHT22;38667;42.872;74.622;2023-12-28T04:31:13;5.80;66.30
52799;DHT22;38667;42.872;74.622;2023-12-28T04:33:39;5.90;64.30
52799;DHT22;38667;42.872;74.622;2023-12-28T04:36:06;6.00;63.20
52799;DHT22;38667;42.872;74.622;2023-12-28T04:38:33;6.10;62.00
52799;DHT22;38667;42.872;74.622;2023-12-28T04:40:59;6.20;62.40
52799;DHT22;38667;42.872;74.622;2023-12-28T04:43:27;6.10;61.20
52799;DHT22;38667;42.872;74.622;2023-12-28T04:45:56;6.00;62.30
52799;DHT22;38667;42.872;74.622;2023-12-28T04:48:22;5.90;62.70
52799;DHT22;38667;42.872;74.622;2023-12-28T04:50:49;5.90;63.90
52799;DHT22;38667;42.872;74.622;2023-12-28T04:53:15;6.00;64.30
52799;DHT22;38667;42.872;74.622;2023-12-28T04:55:42;5.90;64.30
52799;DHT22;38667;42.872;74.622;2023-12-28T04:58:08;6.00;63.50
52799;DHT22;38667;42.872;74.622;2023-12-28T05:00:38;6.00;64.30
52799;DHT22;38667;42.872;74.622;2023-12-28T05:03:04;6.10;64.10
52799;DHT22;38667;42.872;74.622;2023-12-28T05:05:31;6.10;64.50
52799;DHT22;38667;42.872;74.622;2023-12-28T05:07:57;6.20;62.40
52799;DHT22;38667;42.872;74.622;2023-12-28T05:10:23;6.30;63.10
52799;DHT22;38667;42.872;74.622;2023-12-28T05:12:50;6.40;64.50
52799;DHT22;38667;42.872;74.622;2023-12-28T05:15:16;6.40;64.80
52799;DHT22;38667;42.872;74.622;2023-12-28T05:17:44;6.40;65.70
52799;DHT22;38667;42.872;74.622;2023-12-28T05:20:11;6.40;66.00
52799;DHT22;38667;42.872;74.622;2023-12-28T05:22:37;6.40;66.80
52799;DHT22;38667;42.872;74.622;2023-12-28T05:25:04;6.40;65.20
52799;DHT22;38667;42.872;74.622;2023-12-28T05:27:31;6.40;65.60
52799;DHT22;38667;42.872;74.622;2023-12-28T05:29:57;6.40;65.80
52799;DHT22;38667;42.872;74.622;2023-12-28T05:32:23;6.40;66.90
52799;DHT22;38667;42.872;74.622;2023-12-28T05:34:51;6.50;65.50
52799;DHT22;38667;42.872;74.622;2023-12-28T05:37:17;6.60;65.60
52799;DHT22;38667;42.872;74.622;2023-12-28T05:39:44;6.70;65.40
52799;DHT22;38667;42.872;74.622;2023-12-28T05:42:10;6.80;64.70
52799;DHT22;38667;42.872;74.622;2023-12-28T05:44:36;6.80;65.30
52799;DHT22;38667;42.872;74.622;2023-12-28T05:47:03;6.90;64.60
52799;DHT22;38667;42.872;74.622;2023-12-28T05:49:29;6.90;64.70
52799;DHT22;38667;42.872;74.622;2023-12-28T05:51:57;6.90;65.60
52799;DHT22;38667;42.872;74.622;2023-12-28T05:54:23;7.00;65.50
52799;DHT22;38667;42.872;74.622;2023-12-28T05:56:50;7.10;65.40
52799;DHT22;38667;42.872;74.622;2023-12-28T05:59:16;7.20;65.00
52799;DHT22;38667;42.872;74.622;2023-12-28T06:01:43;7.20;65.90
52799;DHT22;38667;42.872;74.622;2023-12-28T06:04:09;7.30;65.40
52799;DHT22;38667;42.872;74.622;2023-12-28T06:06:36;7.50;65.60
52799;DHT22;38667;42.872;74.622;2023-12-28T06:09:04;7.60;65.20
52799;DHT22;38667;42.872;74.622;2023-12-28T06:11:30;7.70;62.20
52799;DHT22;38667;42.872;74.622;2023-12-28T06:13:56;7.80;60.90
52799;DHT22;38667;42.872;74.622;2023-12-28T06:16:23;7.90;60.50
52799;DHT22;38667;42.872;74.622;2023-12-28T06:18:50;8.10;59.90
52799;DHT22;38667;42.872;74.622;2023-12-28T06:21:16;8.10;59.70
52799;DHT22;38667;42.872;74.622;2023-12-28T06:23:42;8.20;58.90
52799;DHT22;38667;42.872;74.622;2023-12-28T06:26:10;8.30;59.40
52799;DHT22;38667;42.872;74.622;2023-12-28T06:28:36;8.50;59.20
52799;DHT22;38667;42.872;74.622;2023-12-28T06:31:03;8.60;57.50
52799;DHT22;38667;42.872;74.622;2023-12-28T06:33:30;8.70;55.90
52799;DHT22;38667;42.872;74.622;2023-12-28T06:35:56;8.80;55.20
52799;DHT22;38667;42.872;74.622;2023-12-28T06:38:22;8.90;55.60
52799;DHT22;38667;42.872;74.622;2023-12-28T06:40:49;9.00;55.50
52799;DHT22;38667;42.872;74.622;2023-12-28T06:43:17;9.10;53.40
52799;DHT22;38667;42.872;74.622;2023-12-28T06:45:43;9.20;52.90
52799;DHT22;38667;42.872;74.622;2023-12-28T06:48:09;9.40;53.10
52799;DHT22;38667;42.872;74.622;2023-12-28T06:50:36;9.40;54.00
52799;DHT22;38667;42.872;74.622;2023-12-28T06:53:02;9.50;54.60
52799;DHT22;38667;42.872;74.622;2023-12-28T06:55:28;9.60;54.10
52799;DHT22;38667;42.872;74.622;2023-12-28T06:57:55;9.70;52.60
52799;DHT22;38667;42.872;74.622;2023-12-28T07:00:23;9.70;53.00
52799;DHT22;38667;42.872;74.622;2023-12-28T07:02:49;9.80;52.30
52799;DHT22;38667;42.872;74.622;2023-12-28T07:05:15;9.90;51.20
52799;DHT22;38667;42.872;74.622;2023-12-28T07:07:42;10.10;50.80
52799;DHT22;38667;42.872;74.622;2023-12-28T07:10:08;10.10;50.60
52799;DHT22;38667;42.872;74.622;2023-12-28T07:12:35;10.20;50.00
52799;DHT22;38667;42.872;74.622;2023-12-28T07:15:01;10.20;50.80
52799;DHT22;38667;42.872;74.622;2023-12-28T07:17:29;10.30;50.00
52799;DHT22;38667;42.872;74.622;2023-12-28T07:19:55;10.40;50.20
52799;DHT22;38667;42.872;74.622;2023-12-28T07:22:22;10.40;49.30
52799;DHT22;38667;42.872;74.622;2023-12-28T07:24:48;10.60;49.80
52799;DHT22;38667;42.872;74.622;2023-12-28T07:27:14;10.50;51.20
52799;DHT22;38667;42.872;74.622;2023-12-28T07:29:41;10.60;48.20
52799;DHT22;38667;42.872;74.622;2023-12-28T07:32:07;10.60;48.30
52799;DHT22;38667;42.872;74.622;2023-12-28T07:34:35;10.60;47.80
52799;DHT22;38667;42.872;74.622;2023-12-28T07:37:01;10.70;47.80
52799;DHT22;38667;42.872;74.622;2023-12-28T07:39:28;10.80;46.80
52799;DHT22;38667;42.872;74.622;2023-12-28T07:41:54;10.80;47.50
52799;DHT22;38667;42.872;74.622;2023-12-28T07:44:20;10.80;48.20
52799;DHT22;38667;42.872;74.622;2023-12-28T07:46:47;10.80;46.50
52799;DHT22;38667;42.872;74.622;2023-12-28T07:49:13;10.90;47.20
52799;DHT22;38667;42.872;74.622;2023-12-28T07:51:41;10.90;47.70
52799;DHT22;38667;42.872;74.622;2023-12-28T07:54:07;11.00;47.20
52799;DHT22;38667;42.872;74.622;2023-12-28T07:56:34;11.00;47.20
52799;DHT22;38667;42.872;74.622;2023-12-28T07:59:00;11.10;45.30
52799;DHT22;38667;42.872;74.622;2023-12-28T08:01:26;11.20;42.90
52799;DHT22;38667;42.872;74.622;2023-12-28T08:03:53;11.40;43.40
52799;DHT22;38667;42.872;74.622;2023-12-28T08:06:19;11.40;44.90
52799;DHT22;38667;42.872;74.622;2023-12-28T08:08:47;11.40;44.30
52799;DHT22;38667;42.872;74.622;2023-12-28T08:11:13;11.40;45.40
52799;DHT22;38667;42.872;74.622;2023-12-28T08:13:40;11.40;46.50
52799;DHT22;38667;42.872;74.622;2023-12-28T08:16:07;11.40;46.90
52799;DHT22;38667;42.872;74.622;2023-12-28T08:18:33;11.40;46.00
52799;DHT22;38667;42.872;74.622;2023-12-28T08:20:59;11.40;45.80
52799;DHT22;38667;42.872;74.622;2023-12-28T08:23:26;11.40;46.80
52799;DHT22;38667;42.872;74.622;2023-12-28T08:25:54;11.50;46.70
52799;DHT22;38667;42.872;74.622;2023-12-28T08:28:20;11.40;46.70
52799;DHT22;38667;42.872;74.622;2023-12-28T08:30:46;11.50;46.70
52799;DHT22;38667;42.872;74.622;2023-12-28T08:33:13;11.50;46.40
52799;DHT22;38667;42.872;74.622;2023-12-28T08:35:39;11.50;47.50
52799;DHT22;38667;42.872;74.622;2023-12-28T08:38:05;11.50;47.50
52799;DHT22;38667;42.872;74.622;2023-12-28T08:40:32;11.60;47.30
52799;DHT22;38667;42.872;74.622;2023-12-28T08:43:00;11.60;47.20
52799;DHT22;38667;42.872;74.622;2023-12-28T08:45:26;11.60;47.00
52799;DHT22;38667;42.872;74.622;2023-12-28T08:47:52;11.60;48.00
52799;DHT22;38667;42.872;74.622;2023-12-28T08:50:20;11.60;48.30
52799;DHT22;38667;42.872;74.622;2023-12-28T08:52:46;11.60;48.90
52799;DHT22;38667;42.872;74.622;2023-12-28T08:55:12;11.60;49.00
52799;DHT22;38667;42.872;74.622;2023-12-28T08:57:39;11.70;49.30
52799;DHT22;38667;42.872;74.622;2023-12-28T09:00:10;11.70;49.80
52799;DHT22;38667;42.872;74.622;2023-12-28T09:02:37;11.70;50.00
52799;DHT22;38667;42.872;74.622;2023-12-28T09:05:04;11.70;50.00
52799;DHT22;38667;42.872;74.622;2023-12-28T09:07:30;11.70;50.60
52799;DHT22;38667;42.872;74.622;2023-12-28T09:09:57;11.60;50.90
52799;DHT22;38667;42.872;74.622;2023-12-28T09:12:23;11.70;51.10
52799;DHT22;38667;42.872;74.622;2023-12-28T09:14:49;11.70;50.80
52799;DHT22;38667;42.872;74.622;2023-12-28T09:17:17;11.70;47.10
52799;DHT22;38667;42.872;74.622;2023-12-28T09:19:44;11.90;41.90
52799;DHT22;38667;42.872;74.622;2023-12-28T09:22:10;12.00;44.20
52799;DHT22;38667;42.872;74.622;2023-12-28T09:24:36;11.90;53.60
52799;DHT22;38667;42.872;74.622;2023-12-28T09:27:03;11.80;55.10
52799;DHT22;38667;42.872;74.622;2023-12-28T09:29:29;11.60;56.10
52799;DHT22;38667;42.872;74.622;2023-12-28T09:31:56;11.50;56.90
52799;DHT22;38667;42.872;74.622;2023-12-28T09:34:24;11.50;57.40
52799;DHT22;38667;42.872;74.622;2023-12-28T09:36:50;11.40;58.00
52799;DHT22;38667;42.872;74.622;2023-12-28T09:39:16;11.30;57.70
52799;DHT22;38667;42.872;74.622;2023-12-28T09:41:49;11.20;57.90
52799;DHT22;38667;42.872;74.622;2023-12-28T09:44:19;11.20;58.30
52799;DHT22;38667;42.872;74.622;2023-12-28T09:46:46;11.10;58.80
52799;DHT22;38667;42.872;74.622;2023-12-28T09:49:12;11.10;58.80
52799;DHT22;38667;42.872;74.622;2023-12-28T09:51:40;11.00;59.00
52799;DHT22;38667;42.872;74.622;2023-12-28T09:54:07;11.00;59.00
52799;DHT22;38667;42.872;74.622;2023-12-28T09:56:34;11.00;58.40
52799;DHT22;38667;42.872;74.622;2023-12-28T09:59:03;11.00;57.90
52799;DHT22;38667;42.872;74.622;2023-12-28T10:01:29;10.90;57.40
52799;DHT22;38667;42.872;74.622;2023-12-28T10:03:56;10.90;57.30
52799;DHT22;38667;42.872;74.622;2023-12-28T10:06:22;10.90;56.90
52799;DHT22;38667;42.872;74.622;2023-12-28T10:08:50;10.80;56.80
52799;DHT22;38667;42.872;74.622;2023-12-28T10:11:17;10.80;57.00
52799;DHT22;38667;42.872;74.622;2023-12-28T10:13:45;10.80;57.30
52799;DHT22;38667;42.872;74.622;2023-12-28T10:16:12;10.80;58.30
52799;DHT22;38667;42.872;74.622;2023-12-28T10:18:40;10.70;58.90
52799;DHT22;38667;42.872;74.622;2023-12-28T10:21:07;10.70;59.50
52799;DHT22;38667;42.872;74.622;2023-12-28T10:23:33;10.60;60.20
52799;DHT22;38667;42.872;74.622;2023-12-28T10:26:03;10.60;60.20
52799;DHT22;38667;42.872;74.622;2023-12-28T10:28:31;10.50;60.50
52799;DHT22;38667;42.872;74.622;2023-12-28T10:30:58;10.50;60.90
52799;DHT22;38667;42.872;74.622;2023-12-28T10:33:24;10.50;61.30
52799;DHT22;38667;42.872;74.622;2023-12-28T10:35:51;10.40;61.30
52799;DHT22;38667;42.872;74.622;2023-12-28T10:38:17;10.40;61.60
52799;DHT22;38667;42.872;74.622;2023-12-28T10:40:44;10.50;61.60
52799;DHT22;38667;42.872;74.622;2023-12-28T10:43:16;10.50;61.30
52799;DHT22;38667;42.872;74.622;2023-12-28T10:45:42;10.50;60.70
52799;DHT22;38667;42.872;74.622;2023-12-28T10:48:12;10.50;60.30
52799;DHT22;38667;42.872;74.622;2023-12-28T10:50:39;10.50;60.50
52799;DHT22;38667;42.872;74.622;2023-12-28T10:53:15;10.50;60.20
52799;DHT22;38667;42.872;74.622;2023-12-28T10:55:50;10.40;59.60
52799;DHT22;38667;42.872;74.622;2023-12-28T10:58:24;10.40;59.50
52799;DHT22;38667;42.872;74.622;2023-12-28T11:00:58;10.40;59.20
52799;DHT22;38667;42.872;74.622;2023-12-28T11:03:30;10.30;59.10
52799;DHT22;38667;42.872;74.622;2023-12-28T11:05:58;10.40;59.20
52799;DHT22;38667;42.872;74.622;2023-12-28T11:08:25;10.60;58.90
52799;DHT22;38667;42.872;74.622;2023-12-28T11:10:52;10.70;58.70
52799;DHT22;38667;42.872;74.622;2023-12-28T11:13:22;10.60;58.50
52799;DHT22;38667;42.872;74.622;2023-12-28T11:15:49;10.50;58.80
52799;DHT22;38667;42.872;74.622;2023-12-28T11:18:16;10.40;59.10
52799;DHT22;38667;42.872;74.622;2023-12-28T11:20:43;10.30;59.20
52799;DHT22;38667;42.872;74.622;2023-12-28T11:23:10;10.30;59.40
52799;DHT22;38667;42.872;74.622;2023-12-28T11:25:37;10.20;59.90
52799;DHT22;38667;42.872;74.622;2023-12-28T11:28:09;10.10;60.30
52799;DHT22;38667;42.872;74.622;2023-12-28T11:30:38;10.10;61.00
52799;DHT22;38667;42.872;74.622;2023-12-28T11:33:05;10.00;60.90
52799;DHT22;38667;42.872;74.622;2023-12-28T11:35:34;10.00;61.50
52799;DHT22;38667;42.872;74.622;2023-12-28T11:38:01;10.00;62.30
52799;DHT22;38667;42.872;74.622;2023-12-28T11:40:29;9.90;62.70
52799;DHT22;38667;42.872;74.622;2023-12-28T11:42:55;9.80;63.10
52799;DHT22;38667;42.872;74.622;2023-12-28T11:45:23;9.80;63.50
52799;DHT22;38667;42.872;74.622;2023-12-28T11:48:01;9.70;63.40
52799;DHT22;38667;42.872;74.622;2023-12-28T11:50:27;9.70;63.00
52799;DHT22;38667;42.872;74.622;2023-12-28T11:52:54;9.60;62.90
52799;DHT22;38667;42.872;74.622;2023-12-28T11:55:21;9.60;63.10
52799;DHT22;38667;42.872;74.622;2023-12-28T11:57:48;9.50;63.70
52799;DHT22;38667;42.872;74.622;2023-12-28T12:00:15;9.50;63.80
52799;DHT22;38667;42.872;74.622;2023-12-28T12:02:44;9.40;63.90
52799;DHT22;38667;42.872;74.622;2023-12-28T12:05:12;9.40;64.20
52799;DHT22;38667;42.872;74.622;2023-12-28T12:07:38;9.40;64.60
52799;DHT22;38667;42.872;74.622;2023-12-28T12:10:05;9.30;65.10
52799;DHT22;38667;42.872;74.622;2023-12-28T12:12:31;9.20;65.10
52799;DHT22;38667;42.872;74.622;2023-12-28T12:14:58;9.20;65.50
52799;DHT22;38667;42.872;74.622;2023-12-28T12:17:26;9.10;65.20
52799;DHT22;38667;42.872;74.622;2023-12-28T12:19:53;9.00;63.90
52799;DHT22;38667;42.872;74.622;2023-12-28T12:22:23;9.00;63.60
52799;DHT22;38667;42.872;74.622;2023-12-28T12:24:51;8.90;62.70
52799;DHT22;38667;42.872;74.622;2023-12-28T12:27:18;8.90;63.70
52799;DHT22;38667;42.872;74.622;2023-12-28T12:29:44;8.90;63.60
52799;DHT22;38667;42.872;74.622;2023-12-28T12:32:11;8.70;64.00
52799;DHT22;38667;42.872;74.622;2023-12-28T12:34:38;8.70;63.90
52799;DHT22;38667;42.872;74.622;2023-12-28T12:37:05;8.70;64.70
52799;DHT22;38667;42.872;74.622;2023-12-28T12:39:33;8.60;64.60
52799;DHT22;38667;42.872;74.622;2023-12-28T12:41:59;8.60;65.60
52799;DHT22;38667;42.872;74.622;2023-12-28T12:44:26;8.50;65.50
52799;DHT22;38667;42.872;74.622;2023-12-28T12:46:57;8.50;65.90
52799;DHT22;38667;42.872;74.622;2023-12-28T12:49:23;8.40;67.00
52799;DHT22;38667;42.872;74.622;2023-12-28T12:51:50;8.30;66.90
52799;DHT22;38667;42.872;74.622;2023-12-28T12:54:17;8.40;66.90
52799;DHT22;38667;42.872;74.622;2023-12-28T12:56:45;8.40;66.90
52799;DHT22;38667;42.872;74.622;2023-12-28T12:59:12;8.40;67.40
52799;DHT22;38667;42.872;74.622;2023-12-28T13:01:39;8.30;68.60
52799;DHT22;38667;42.872;74.622;2023-12-28T13:04:06;8.10;68.90
52799;DHT22;38667;42.872;74.622;2023-12-28T13:06:33;8.00;69.30
52799;DHT22;38667;42.872;74.622;2023-12-28T13:08:59;8.00;70.20
52799;DHT22;38667;42.872;74.622;2023-12-28T13:11:26;7.90;71.00
52799;DHT22;38667;42.872;74.622;2023-12-28T13:13:54;8.00;68.20
52799;DHT22;38667;42.872;74.622;2023-12-28T13:16:20;8.20;67.30
52799;DHT22;38667;42.872;74.622;2023-12-28T13:18:47;8.40;65.00
52799;DHT22;38667;42.872;74.622;2023-12-28T13:21:13;8.60;59.30
52799;DHT22;38667;42.872;74.622;2023-12-28T13:23:40;8.90;54.40
52799;DHT22;38667;42.872;74.622;2023-12-28T13:26:06;9.10;53.90
52799;DHT22;38667;42.872;74.622;2023-12-28T13:28:32;9.40;53.00
52799;DHT22;38667;42.872;74.622;2023-12-28T13:31:00;9.60;48.50
52799;DHT22;38667;42.872;74.622;2023-12-28T13:33:26;9.80;49.00
52799;DHT22;38667;42.872;74.622;2023-12-28T13:35:53;10.00;45.30
52799;DHT22;38667;42.872;74.622;2023-12-28T13:38:19;10.30;43.80
52799;DHT22;38667;42.872;74.622;2023-12-28T13:40:45;10.50;42.80
52799;DHT22;38667;42.872;74.622;2023-12-28T13:43:12;10.60;42.50
52799;DHT22;38667;42.872;74.622;2023-12-28T13:45:38;10.70;41.10
52799;DHT22;38667;42.872;74.622;2023-12-28T13:48:07;10.90;40.50
52799;DHT22;38667;42.872;74.622;2023-12-28T13:50:33;10.90;40.60
52799;DHT22;38667;42.872;74.622;2023-12-28T13:53:00;11.10;39.00
52799;DHT22;38667;42.872;74.622;2023-12-28T13:55:26;11.20;39.00
52799;DHT22;38667;42.872;74.622;2023-12-28T13:57:52;11.20;38.60
52799;DHT22;38667;42.872;74.622;2023-12-28T14:00:19;11.40;37.60
52799;DHT22;38667;42.872;74.622;2023-12-28T14:02:45;11.50;38.60
52799;DHT22;38667;42.872;74.622;2023-12-28T14:05:14;11.50;38.40
52799;DHT22;38667;42.872;74.622;2023-12-28T14:07:40;11.60;38.30
52799;DHT22;38667;42.872;74.622;2023-12-28T14:10:07;11.60;37.50
52799;DHT22;38667;42.872;74.622;2023-12-28T14:12:34;11.60;38.20
52799;DHT22;38667;42.872;74.622;2023-12-28T14:15:00;11.70;37.50
52799;DHT22;38667;42.872;74.622;2023-12-28T14:17:27;11.70;37.70
52799;DHT22;38667;42.872;74.622;2023-12-28T14:19:53;11.70;37.00
52799;DHT22;38667;42.872;74.622;2023-12-28T14:22:22;11.70;36.80
52799;DHT22;38667;42.872;74.622;2023-12-28T14:24:48;11.80;36.20
52799;DHT22;38667;42.872;74.622;2023-12-28T14:27:15;11.80;36.60
52799;DHT22;38667;42.872;74.622;2023-12-28T14:29:42;11.80;36.30
52799;DHT22;38667;42.872;74.622;2023-12-28T14:32:10;11.90;36.30
52799;DHT22;38667;42.872;74.622;2023-12-28T14:34:37;11.90;36.50
52799;DHT22;38667;42.872;74.622;2023-12-28T14:37:04;11.80;36.70
52799;DHT22;38667;42.872;74.622;2023-12-28T14:39:32;11.80;37.30
52799;DHT22;38667;42.872;74.622;2023-12-28T14:41:58;11.80;37.60
52799;DHT22;38667;42.872;74.622;2023-12-28T14:44:24;11.80;37.20
52799;DHT22;38667;42.872;74.622;2023-12-28T14:46:51;11.80;36.80
52799;DHT22;38667;42.872;74.622;2023-12-28T14:49:17;11.80;36.70
52799;DHT22;38667;42.872;74.622;2023-12-28T14:51:43;11.90;36.40
52799;DHT22;38667;42.872;74.622;2023-12-28T14:54:10;11.90;35.70
52799;DHT22;38667;42.872;74.622;2023-12-28T14:56:38;11.90;36.00
52799;DHT22;38667;42.872;74.622;2023-12-28T14:59:05;11.80;36.60
52799;DHT22;38667;42.872;74.622;2023-12-28T15:01:31;11.80;36.80
52799;DHT22;38667;42.872;74.622;2023-12-28T15:03:57;11.80;36.50
52799;DHT22;38667;42.872;74.622;2023-12-28T15:06:24;11.80;36.70
52799;DHT22;38667;42.872;74.622;2023-12-28T15:08:50;11.90;36.50
52799;DHT22;38667;42.872;74.622;2023-12-28T15:11:17;11.90;36.80
52799;DHT22;38667;42.872;74.622;2023-12-28T15:13:45;11.80;36.50
52799;DHT22;38667;42.872;74.622;2023-12-28T15:16:13;11.80;37.30
52799;DHT22;38667;42.872;74.622;2023-12-28T15:18:40;11.70;37.30
52799;DHT22;38667;42.872;74.622;2023-12-28T15:21:07;11.70;37.10
52799;DHT22;38667;42.872;74.622;2023-12-28T15:23:34;11.80;37.50